Remanso, Brazil
Current Conditions -  °F | °C
As of 3:00 AM on Friday 21 Nov 2014 (Local Time) from SBCZ Reporting Station
Moderate Fog Moderate Fog  
Wind Chill: 75°   Ceiling: 300
Heat Index: 75°   Visibility: 0.56mi
Dew Point: 75°   Wind: 0mph
Humidity: 100%   Direction: NA
Pressure: 29.74"   Gusts: NA
Location:  8.48°S, 73.05°W
Report Text: SBCZ 210800Z 00000KT 0900 FG BKN003 24/24 Q1007
Loading
Personal Weather Stations






























Interactive Weather Map New forecast layout! Learn more

10-Day Weather Forecast

Advertisements
Track Severe Weather on mobile